Time;durP1;ratioP1;P1;durP2;ratioP2;P2;SDS_P1;SDS_P2;PMS_P1;PMS_P2;Temp;Humidity;BMP_temperature;BMP_pressure;BME280_temperature;BME280_humidity;BME280_pressure;Samples;Min_cycle;Max_cycle;Signal;HPM_P1;HPM_P2
2022/06/20 00:00:01;;;;;;;6.97;2.22;;;10.30;99.90;;;;;;5094996;28;20039;-91
2022/06/20 00:02:27;;;;;;;7.10;1.90;;;10.30;99.90;;;;;;5097860;28;20549;-90
2022/06/20 00:04:54;;;;;;;9.13;2.22;;;10.20;99.90;;;;;;5113788;28;20016;-88
2022/06/20 00:07:21;;;;;;;9.05;2.90;;;10.20;99.90;;;;;;5114267;28;20028;-90
2022/06/20 00:09:47;;;;;;;7.53;2.15;;;10.20;99.90;;;;;;5108222;28;20032;-91
2022/06/20 00:12:21;;;;;;;8.10;2.38;;;10.10;99.90;;;;;;5094057;28;20031;-91
2022/06/20 00:14:50;;;;;;;8.50;2.60;;;10.10;99.90;;;;;;5094259;28;20020;-91
2022/06/20 00:17:16;;;;;;;8.07;2.22;;;10.10;99.90;;;;;;5093843;28;20433;-90
2022/06/20 00:19:42;;;;;;;6.80;2.72;;;10.20;99.90;;;;;;5093718;28;20123;-91
2022/06/20 00:22:11;;;;;;;5.07;2.10;;;10.20;99.90;;;;;;5093941;28;20461;-91
2022/06/20 00:24:37;;;;;;;10.23;2.97;;;10.20;99.90;;;;;;5093566;28;20028;-90
2022/06/20 00:27:06;;;;;;;6.90;2.30;;;10.20;99.90;;;;;;5093852;28;20035;-89
2022/06/20 00:29:37;;;;;;;6.13;2.13;;;10.20;99.90;;;;;;5093396;28;20024;-90
2022/06/20 00:32:06;;;;;;;9.90;3.35;;;10.20;99.90;;;;;;5093927;28;20016;-89
2022/06/20 00:34:32;;;;;;;10.27;2.10;;;10.10;99.90;;;;;;5093605;28;20036;-88
2022/06/20 00:36:57;;;;;;;6.95;2.17;;;10.10;99.90;;;;;;5093861;28;20024;-89
2022/06/20 00:39:23;;;;;;;8.80;2.70;;;10.00;99.90;;;;;;5093846;28;20457;-91
2022/06/20 00:41:50;;;;;;;7.68;2.63;;;9.90;99.90;;;;;;5093546;28;20031;-90
2022/06/20 00:44:28;;;;;;;11.63;2.53;;;9.80;99.90;;;;;;5094004;28;20469;-89
2022/06/20 00:47:03;;;;;;;10.27;2.30;;;9.70;99.90;;;;;;5093332;28;20024;-89
2022/06/20 00:49:34;;;;;;;9.32;2.42;;;9.60;99.90;;;;;;5076984;28;20028;-90
2022/06/20 00:52:27;;;;;;;7.88;2.88;;;9.60;99.90;;;;;;5093074;28;20028;-92
2022/06/20 00:54:59;;;;;;;5.85;2.33;;;9.50;99.90;;;;;;5093570;28;20484;-90
2022/06/20 00:57:29;;;;;;;7.47;2.15;;;9.50;99.90;;;;;;5093209;28;20024;-90
2022/06/20 01:00:04;;;;;;;7.13;2.47;;;9.40;99.90;;;;;;5093191;28;20523;-91
2022/06/20 01:02:38;;;;;;;4.88;2.15;;;9.40;99.90;;;;;;5095154;28;20032;-91
2022/06/20 01:05:27;;;;;;;8.60;2.53;;;9.40;99.90;;;;;;5097410;28;20786;-91
2022/06/20 01:07:59;;;;;;;8.07;2.05;;;9.30;99.90;;;;;;5093011;28;20027;-93
2022/06/20 01:10:30;;;;;;;5.72;2.30;;;9.30;99.90;;;;;;5093379;28;20090;-91
2022/06/20 01:13:01;;;;;;;;;;;9.20;99.90;;;;;;5094674;28;20016;-91
2022/06/20 01:15:36;;;;;;;5.93;2.13;;;9.20;99.90;;;;;;5093684;28;19939;-91
2022/06/20 01:18:05;;;;;;;6.03;1.83;;;9.20;99.90;;;;;;5094178;28;20028;-90
2022/06/20 01:20:36;;;;;;;6.72;2.15;;;9.20;99.90;;;;;;5093273;28;20469;-90
2022/06/20 01:23:35;;;;;;;4.20;1.85;;;9.10;99.90;;;;;;5093239;28;20020;-91
2022/06/20 01:26:26;;;;;;;5.10;2.75;;;9.10;99.90;;;;;;5093035;28;20473;-90
2022/06/20 01:28:59;;;;;;;6.38;1.98;;;9.10;99.90;;;;;;5093198;28;20024;-91
2022/06/20 01:31:31;;;;;;;5.80;2.40;;;9.10;99.90;;;;;;5093109;28;20492;-91
2022/06/20 01:34:00;;;;;;;5.45;1.75;;;9.00;99.90;;;;;;5093644;28;20024;-91
2022/06/20 01:39:16;;;;;;;5.22;2.03;;;9.00;99.90;;;;;;5095140;28;20105;-92
2022/06/20 01:44:27;;;;;;;7.25;2.47;;;8.90;99.90;;;;;;5095305;28;20144;-91
2022/06/20 01:46:53;;;;;;;7.20;2.50;;;8.90;99.90;;;;;;5105490;28;20030;-90
2022/06/20 01:49:22;;;;;;;6.07;2.10;;;8.90;99.90;;;;;;5112109;28;20078;-91
2022/06/20 01:51:54;;;;;;;6.40;1.90;;;8.80;99.90;;;;;;5101059;28;20027;-90
2022/06/20 01:54:22;;;;;;;5.90;2.67;;;8.80;99.90;;;;;;5097893;28;20063;-92
2022/06/20 01:56:51;;;;;;;9.23;2.33;;;8.80;99.90;;;;;;5097630;28;20024;-91
2022/06/20 01:59:23;;;;;;;6.32;2.38;;;8.80;99.90;;;;;;5096826;28;20059;-92
2022/06/20 02:01:51;;;;;;;5.38;1.75;;;8.70;99.90;;;;;;5096782;28;20025;-91
2022/06/20 02:04:24;;;;;;;6.45;2.05;;;8.70;99.90;;;;;;5097006;28;20024;-91
2022/06/20 02:06:51;;;;;;;4.95;2.47;;;8.70;99.90;;;;;;5097394;28;20035;-90
2022/06/20 02:09:17;;;;;;;7.70;2.17;;;8.60;99.90;;;;;;5097040;28;20023;-89
2022/06/20 02:11:47;;;;;;;6.75;2.60;;;8.60;99.90;;;;;;5098085;28;20365;-90
2022/06/20 02:14:35;;;;;;;7.40;2.50;;;8.60;99.90;;;;;;5096501;28;20023;-90
2022/06/20 02:17:13;;;;;;;5.72;2.13;;;8.50;99.90;;;;;;5086525;28;20076;-89
2022/06/20 02:19:49;;;;;;;8.65;2.90;;;8.50;99.90;;;;;;5096537;28;20035;-89
2022/06/20 02:22:17;;;;;;;5.80;2.05;;;8.50;99.90;;;;;;5096608;28;20460;-89
2022/06/20 02:24:46;;;;;;;7.07;1.88;;;8.40;99.90;;;;;;5093345;28;20059;-88
2022/06/20 02:27:24;;;;;;;5.28;2.10;;;8.40;99.90;;;;;;5075992;28;20070;-91
2022/06/20 02:29:49;;;;;;;5.07;2.53;;;8.30;99.90;;;;;;5075853;28;20028;-92
2022/06/20 02:32:27;;;;;;;4.57;2.00;;;8.30;99.90;;;;;;5076445;28;20077;-88
2022/06/20 02:34:56;;;;;;;10.45;3.15;;;8.30;99.90;;;;;;5076221;28;20044;-89
2022/06/20 02:37:25;;;;;;;6.60;2.17;;;8.20;99.90;;;;;;5075800;28;20028;-91
2022/06/20 02:39:57;;;;;;;8.43;3.20;;;8.20;99.90;;;;;;5075850;28;20036;-90
2022/06/20 02:42:32;;;;;;;4.15;2.33;;;8.20;99.90;;;;;;5076069;28;20025;-91
2022/06/20 02:45:00;;;;;;;4.32;2.33;;;8.10;99.90;;;;;;5075879;28;20051;-90
2022/06/20 02:47:27;;;;;;;6.47;2.20;;;8.10;99.90;;;;;;5075807;28;20036;-89
2022/06/20 02:49:56;;;;;;;5.93;2.25;;;8.10;99.90;;;;;;5075507;28;20489;-88
2022/06/20 02:52:28;;;;;;;5.18;2.15;;;8.10;99.90;;;;;;5075329;28;20056;-89
2022/06/20 02:54:54;;;;;;;6.35;2.20;;;8.10;99.90;;;;;;5077464;28;20049;-90
2022/06/20 02:57:34;;;;;;;6.25;2.08;;;8.00;99.90;;;;;;5079503;28;20043;-90
2022/06/20 03:00:03;;;;;;;5.75;2.33;;;8.00;99.90;;;;;;5075283;28;20048;-90
2022/06/20 03:02:33;;;;;;;7.63;2.10;;;8.00;99.90;;;;;;5075460;28;20025;-91
2022/06/20 03:05:01;;;;;;;6.45;2.22;;;7.90;99.90;;;;;;5075770;28;20036;-89
2022/06/20 03:07:30;;;;;;;4.82;2.25;;;7.90;99.90;;;;;;5075092;28;20110;-91
2022/06/20 03:10:20;;;;;;;6.13;2.10;;;7.90;99.90;;;;;;5073433;28;20478;-90
2022/06/20 03:12:47;;;;;;;7.18;2.72;;;7.90;99.90;;;;;;5060284;28;20477;-90
2022/06/20 03:15:13;;;;;;;6.75;2.10;;;7.90;99.90;;;;;;5107729;28;20551;-90
2022/06/20 03:17:41;;;;;;;4.68;1.92;;;7.90;99.90;;;;;;5114992;28;20077;-90
2022/06/20 03:20:13;;;;;;;13.10;2.30;;;7.90;99.90;;;;;;5114494;28;20520;-91
2022/06/20 03:22:46;;;;;;;8.10;2.25;;;7.90;99.90;;;;;;5114683;28;20054;-91
2022/06/20 03:25:14;;;;;;;4.32;2.63;;;7.90;99.90;;;;;;5114668;28;20165;-92
2022/06/20 03:27:40;;;;;;;6.25;2.33;;;7.90;99.90;;;;;;5114481;28;20046;-91
2022/06/20 03:30:27;;;;;;;10.20;2.80;;;7.90;99.90;;;;;;5114790;28;20028;-91
2022/06/20 03:32:53;;;;;;;7.93;2.85;;;7.90;99.90;;;;;;5114773;28;20028;-91
2022/06/20 03:35:19;;;;;;;8.38;2.42;;;7.90;99.90;;;;;;5114604;28;20020;-91
2022/06/20 03:37:45;;;;;;;3.50;1.80;;;7.90;99.90;;;;;;5115008;28;20559;-91
2022/06/20 03:40:12;;;;;;;7.13;2.15;;;7.80;99.90;;;;;;5115145;28;20046;-90
2022/06/20 03:42:37;;;;;;;2.70;2.10;;;7.80;99.90;;;;;;5116200;28;20063;-91
2022/06/20 03:45:06;;;;;;;5.65;2.03;;;7.70;99.90;;;;;;5131006;28;20034;-90
2022/06/20 03:47:41;;;;;;;5.50;2.22;;;7.80;99.90;;;;;;5135877;28;20016;-90
2022/06/20 03:50:17;;;;;;;8.48;2.65;;;7.80;99.90;;;;;;5135706;28;20040;-90
2022/06/20 03:52:53;;;;;;;6.75;2.13;;;7.80;99.90;;;;;;5126547;28;20030;-90
2022/06/20 03:55:47;;;;;;;6.72;2.30;;;7.90;99.90;;;;;;5115372;28;20024;-89
2022/06/20 03:58:32;;;;;;;7.68;2.70;;;8.00;99.90;;;;;;5115012;28;20024;-91
2022/06/20 04:01:13;;;;;;;10.38;2.75;;;8.00;99.90;;;;;;5115110;28;20036;-91
2022/06/20 04:03:58;;;;;;;5.35;2.15;;;8.10;99.90;;;;;;5113714;28;20122;-90
2022/06/20 04:07:04;;;;;;;10.63;2.33;;;8.10;99.90;;;;;;5113590;28;20031;-91
2022/06/20 04:12:40;;;;;;;11.13;3.22;;;8.20;99.90;;;;;;5115525;28;20030;-91
2022/06/20 04:15:27;;;;;;;8.68;2.75;;;8.20;99.90;;;;;;5113408;28;20091;-90
2022/06/20 04:18:29;;;;;;;7.13;3.13;;;8.20;99.90;;;;;;5113774;28;20024;-90
2022/06/20 04:21:00;;;;;;;7.80;2.20;;;8.30;99.90;;;;;;5113385;28;20038;-91
2022/06/20 04:23:50;;;;;;;4.07;2.30;;;8.30;99.90;;;;;;5113427;28;20147;-90
2022/06/20 04:26:30;;;;;;;7.60;2.70;;;8.30;99.90;;;;;;5113192;28;20043;-90
2022/06/20 04:29:12;;;;;;;9.38;2.60;;;8.30;99.90;;;;;;5113388;28;20472;-89
2022/06/20 04:31:59;;;;;;;9.23;2.60;;;8.30;99.90;;;;;;5113302;28;20026;-91
2022/06/20 04:34:28;;;;;;;11.40;3.88;;;8.30;99.90;;;;;;5113556;28;20537;-91
2022/06/20 04:37:15;;;;;;;7.13;2.40;;;8.30;99.90;;;;;;5113603;28;20036;-91
2022/06/20 04:39:47;;;;;;;7.40;3.03;;;8.30;99.90;;;;;;5113079;28;20084;-90
2022/06/20 04:42:40;;;;;;;5.88;2.50;;;8.30;99.90;;;;;;5113292;28;20020;-91
2022/06/20 04:45:19;;;;;;;8.50;2.60;;;8.40;99.90;;;;;;5113722;28;20024;-90
2022/06/20 04:47:57;;;;;;;7.35;2.65;;;8.40;99.90;;;;;;5114684;28;20023;-91
2022/06/20 04:50:25;;;;;;;9.13;3.00;;;8.50;99.90;;;;;;5113350;28;20024;-91
2022/06/20 04:52:54;;;;;;;6.40;2.60;;;8.50;99.90;;;;;;5128373;28;20034;-91
2022/06/20 04:55:23;;;;;;;8.57;3.25;;;8.50;99.90;;;;;;5124212;28;20042;-90
2022/06/20 04:57:51;;;;;;;6.55;2.20;;;8.60;99.90;;;;;;5114973;28;20091;-90
2022/06/20 05:00:24;;;;;;;6.32;2.47;;;8.60;99.90;;;;;;5116314;28;20195;-91
2022/06/20 05:02:51;;;;;;;4.63;2.58;;;8.70;99.90;;;;;;5113032;28;20066;-90
2022/06/20 05:05:21;;;;;;;6.38;2.60;;;8.70;99.90;;;;;;5112683;28;20027;-90
2022/06/20 05:07:48;;;;;;;8.88;2.83;;;8.70;99.90;;;;;;5112656;28;20104;-91
2022/06/20 05:10:30;;;;;;;4.95;2.97;;;8.80;99.90;;;;;;5112944;28;20477;-91
2022/06/20 05:13:08;;;;;;;6.35;2.90;;;8.80;99.90;;;;;;5112405;28;20114;-91
2022/06/20 05:15:43;;;;;;;6.15;2.55;;;8.80;99.90;;;;;;5112675;28;20070;-91
2022/06/20 05:18:30;;;;;;;4.22;2.65;;;8.70;99.90;;;;;;5112395;28;20028;-91
2022/06/20 05:21:06;;;;;;;5.47;2.63;;;8.70;99.90;;;;;;5115085;28;20099;-90
2022/06/20 05:23:35;;;;;;;11.57;3.17;;;8.70;99.90;;;;;;5116848;28;20031;-90
2022/06/20 05:26:02;;;;;;;10.55;2.70;;;8.60;99.90;;;;;;5116499;28;20028;-91
2022/06/20 05:28:29;;;;;;;6.32;2.70;;;8.60;99.90;;;;;;5116425;28;20064;-90
2022/06/20 05:30:55;;;;;;;15.45;3.55;;;8.60;99.90;;;;;;5116480;28;20028;-91
2022/06/20 05:33:29;;;;;;;5.88;2.80;;;8.60;99.90;;;;;;5116375;28;20072;-90
2022/06/20 05:36:05;;;;;;;4.32;2.72;;;8.60;99.90;;;;;;5116650;28;20024;-91
2022/06/20 05:38:45;;;;;;;8.90;3.10;;;8.60;99.90;;;;;;5115898;28;20043;-90
2022/06/20 05:41:14;;;;;;;8.13;2.80;;;8.60;99.90;;;;;;5115932;28;20066;-91
2022/06/20 05:43:42;;;;;;;5.35;2.75;;;8.70;99.90;;;;;;5115748;28;20392;-90
2022/06/20 05:46:13;;;;;;;6.75;2.30;;;8.70;99.90;;;;;;5115326;28;20023;-91
2022/06/20 05:48:50;;;;;;;3.92;2.42;;;8.70;99.90;;;;;;5115498;28;20038;-90
2022/06/20 05:51:19;;;;;;;4.60;2.42;;;8.70;99.90;;;;;;5115620;28;20019;-91
2022/06/20 05:53:57;;;;;;;3.83;2.30;;;8.80;99.90;;;;;;5115558;28;20039;-90
2022/06/20 05:56:31;;;;;;;5.20;2.70;;;8.90;99.90;;;;;;5115335;28;20024;-91
2022/06/20 05:58:59;;;;;;;7.00;2.70;;;8.90;99.90;;;;;;5115377;28;20043;-90
2022/06/20 06:01:33;;;;;;;7.00;2.00;;;9.00;99.90;;;;;;5109511;28;20039;-91
2022/06/20 06:04:24;;;;;;;2.95;2.17;;;9.10;99.90;;;;;;5086399;28;20393;-91
2022/06/20 06:07:08;;;;;;;;;;;9.20;99.90;;;;;;5087934;28;20025;-92
2022/06/20 06:09:48;;;;;;;7.28;3.42;;;9.20;99.90;;;;;;5097375;28;19905;-92
2022/06/20 06:12:26;;;;;;;8.30;2.63;;;9.30;99.90;;;;;;5088860;28;20030;-91
2022/06/20 06:15:01;;;;;;;7.60;2.70;;;9.40;99.90;;;;;;5085749;28;20020;-91
2022/06/20 06:17:39;;;;;;;5.65;2.67;;;9.50;99.90;;;;;;5085699;28;20181;-92
2022/06/20 06:20:12;;;;;;;13.65;2.50;;;9.60;99.90;;;;;;5101470;28;20131;-92
2022/06/20 06:22:43;;;;;;;7.95;2.08;;;9.70;99.90;;;;;;5085862;28;20433;-92
2022/06/20 06:25:18;;;;;;;;;;;9.80;99.90;;;;;;5086639;28;20037;-92
2022/06/20 06:27:47;;;;;;;8.52;2.35;;;9.90;99.90;;;;;;5084418;28;19908;-92
2022/06/20 06:30:40;;;;;;;7.07;2.58;;;10.00;99.90;;;;;;5086182;28;20469;-92
2022/06/20 06:33:31;;;;;;;11.48;2.97;;;10.10;99.90;;;;;;5070014;28;20029;-91
2022/06/20 06:36:03;;;;;;;;;;;10.20;99.90;;;;;;5104331;28;20101;-91
2022/06/20 06:38:41;;;;;;;7.38;2.83;;;10.40;99.90;;;;;;5085695;28;20431;-91
2022/06/20 06:41:21;;;;;;;7.50;3.13;;;10.50;99.90;;;;;;5091028;28;20028;-91
2022/06/20 06:43:51;;;;;;;5.65;2.05;;;10.60;99.90;;;;;;5084021;28;20036;-91
2022/06/20 06:46:39;;;;;;;11.75;4.60;;;10.70;99.90;;;;;;5086997;28;20028;-91
2022/06/20 06:49:11;;;;;;;11.48;1.95;;;10.80;99.90;;;;;;5076330;28;20111;-91
2022/06/20 06:51:46;;;;;;;6.72;2.42;;;10.90;99.90;;;;;;5076951;28;20029;-92
2022/06/20 06:54:30;;;;;;;12.13;3.03;;;11.00;99.90;;;;;;5076806;28;20356;-92
2022/06/20 06:57:09;;;;;;;10.80;2.40;;;11.20;99.90;;;;;;5081174;28;20024;-93
2022/06/20 06:59:49;;;;;;;5.45;2.03;;;11.30;99.90;;;;;;5093057;28;20044;-92
2022/06/20 07:02:19;;;;;;;10.40;1.92;;;11.50;99.90;;;;;;5100439;28;20051;-93
2022/06/20 07:04:50;;;;;;;;;;;11.70;99.90;;;;;;5097714;28;20035;-93
2022/06/20 07:07:32;;;;;;;6.90;2.37;;;11.80;99.90;;;;;;5095694;28;19908;-94
2022/06/20 07:09:58;;;;;;;6.25;1.77;;;12.00;99.90;;;;;;5095936;28;20024;-93
2022/06/20 07:12:31;;;;;;;6.22;2.15;;;12.10;99.90;;;;;;5095962;28;20024;-92
2022/06/20 07:15:12;;;;;;;8.55;2.38;;;12.20;99.90;;;;;;5095789;28;20489;-91
2022/06/20 07:18:03;;;;;;;5.85;2.28;;;12.30;99.90;;;;;;5097419;28;20028;-92
2022/06/20 07:20:39;;;;;;;5.35;2.30;;;12.40;99.90;;;;;;5098613;28;20039;-92
2022/06/20 07:23:09;;;;;;;6.25;2.03;;;12.50;99.90;;;;;;5109584;28;20027;-93
2022/06/20 07:25:40;;;;;;;8.57;2.08;;;12.70;99.90;;;;;;5096331;28;20028;-93
2022/06/20 07:28:18;;;;;;;7.60;2.10;;;12.80;99.90;;;;;;5096156;28;20020;-92
2022/06/20 07:30:52;;;;;;;6.53;2.55;;;12.90;99.90;;;;;;5094730;28;20028;-92
2022/06/20 07:33:26;;;;;;;5.15;1.90;;;13.10;99.90;;;;;;5093842;28;20473;-91
2022/06/20 07:35:57;;;;;;;5.22;2.28;;;13.30;99.90;;;;;;5094786;28;20036;-92
2022/06/20 07:39:03;;;;;;;8.60;2.42;;;13.30;99.90;;;;;;5095018;28;20045;-91
2022/06/20 07:41:44;;;;;;;4.65;2.22;;;13.40;99.90;;;;;;5097347;28;20424;-92
2022/06/20 07:44:17;;;;;;;7.63;1.88;;;13.70;99.90;;;;;;5092338;28;20024;-91
2022/06/20 07:47:16;;;;;;;6.40;2.15;;;13.70;99.90;;;;;;5094711;28;20042;-91
2022/06/20 07:49:46;;;;;;;4.20;1.75;;;13.80;99.90;;;;;;5105120;28;20024;-90
2022/06/20 07:52:20;;;;;;;8.75;3.03;;;13.90;99.90;;;;;;5098302;28;20031;-91
2022/06/20 07:54:51;;;;;;;5.88;2.20;;;14.00;99.90;;;;;;5095136;28;20096;-92
2022/06/20 07:57:20;;;;;;;7.07;2.50;;;14.10;99.90;;;;;;5095733;28;20024;-92
2022/06/20 08:00:06;;;;;;;10.07;2.42;;;14.20;99.90;;;;;;5094119;28;20514;-90
2022/06/20 08:02:51;;;;;;;10.55;2.28;;;14.30;99.90;;;;;;5094907;28;20032;-90
2022/06/20 08:05:24;;;;;;;4.63;1.80;;;14.40;99.90;;;;;;5093431;28;20024;-92
2022/06/20 08:08:20;;;;;;;6.25;2.33;;;14.40;99.90;;;;;;5085061;28;20042;-92
2022/06/20 08:10:51;;;;;;;4.85;1.35;;;14.50;99.70;;;;;;5051529;28;20109;-91
2022/06/20 08:13:39;;;;;;;5.18;1.80;;;14.50;98.50;;;;;;5095532;28;20024;-92
2022/06/20 08:16:14;;;;;;;10.65;2.10;;;14.50;97.70;;;;;;5097409;28;20043;-93
2022/06/20 08:18:40;;;;;;;6.80;2.25;;;14.60;97.80;;;;;;5106394;28;20046;-92
2022/06/20 08:21:25;;;;;;;6.53;1.75;;;14.70;97.50;;;;;;5105770;28;20028;-91
2022/06/20 08:23:58;;;;;;;6.53;2.20;;;14.80;97.10;;;;;;5107612;28;20062;-92
2022/06/20 08:26:32;;;;;;;4.68;1.65;;;14.90;96.80;;;;;;5093692;28;20024;-92
2022/06/20 08:29:01;;;;;;;8.80;2.08;;;15.00;96.00;;;;;;5115341;28;20005;-92
2022/06/20 08:31:38;;;;;;;8.52;2.30;;;15.10;95.40;;;;;;5103228;28;20024;-93
2022/06/20 08:34:16;;;;;;;6.60;1.90;;;15.20;94.70;;;;;;5096094;28;20034;-95
2022/06/20 08:37:05;;;;;;;6.53;2.20;;;15.30;94.50;;;;;;5095004;28;20099;-93
2022/06/20 08:39:46;;;;;;;7.78;2.10;;;15.40;94.10;;;;;;5122828;27;20032;-93
2022/06/20 08:42:26;;;;;;;7.97;2.00;;;15.50;93.90;;;;;;5089962;28;20027;-92
2022/06/20 08:45:19;;;;;;;6.35;1.90;;;15.60;93.70;;;;;;5094247;28;20054;-93
2022/06/20 08:48:23;;;;;;;7.78;2.20;;;15.80;93.10;;;;;;5091714;28;20024;-93
2022/06/20 08:51:41;;;;;;;8.45;1.58;;;16.00;92.80;;;;;;5109501;27;20073;-94
2022/06/20 08:54:28;;;;;;;6.95;1.83;;;16.10;91.70;;;;;;5029245;28;20032;-94
2022/06/20 08:57:12;;;;;;;7.72;1.95;;;16.20;90.90;;;;;;5001053;28;20034;-94
2022/06/20 08:59:59;;;;;;;7.30;2.28;;;16.30;90.00;;;;;;4997315;28;20134;-94
2022/06/20 09:02:52;;;;;;;7.13;1.98;;;16.50;89.50;;;;;;5016844;28;20054;-94
2022/06/20 09:05:40;;;;;;;4.07;1.90;;;16.60;88.70;;;;;;5017259;28;20038;-93
2022/06/20 09:08:05;;;;;;;3.65;1.83;;;16.70;87.60;;;;;;5014570;28;20569;-94
2022/06/20 09:10:50;;;;;;;5.30;1.92;;;16.90;87.50;;;;;;5000258;28;20030;-93
2022/06/20 09:13:28;;;;;;;4.13;2.00;;;17.00;86.00;;;;;;5017543;28;20076;-93
2022/06/20 09:15:56;;;;;;;6.32;1.90;;;17.10;85.30;;;;;;4998420;28;20129;-94
2022/06/20 09:18:43;;;;;;;8.70;2.22;;;17.30;84.70;;;;;;4997139;28;20105;-91
2022/06/20 09:21:19;;;;;;;7.30;2.30;;;17.50;83.70;;;;;;4994613;28;20075;-93
2022/06/20 09:23:47;;;;;;;5.60;2.22;;;17.70;82.80;;;;;;5015939;28;20034;-95
2022/06/20 09:26:40;;;;;;;4.68;2.10;;;17.80;82.20;;;;;;5012440;28;20140;-94
2022/06/20 09:29:30;;;;;;;6.85;2.05;;;17.90;81.50;;;;;;5007572;28;20032;-93
2022/06/20 09:32:13;;;;;;;7.45;1.83;;;18.00;80.30;;;;;;5091738;28;20115;-92
2022/06/20 09:35:16;;;;;;;6.63;2.95;;;18.20;79.70;;;;;;5076950;28;20037;-94
2022/06/20 09:38:22;;;;;;;4.90;1.83;;;18.10;78.80;;;;;;5101154;28;20028;-94
2022/06/20 09:40:55;;;;;;;6.75;2.22;;;18.20;78.70;;;;;;5106574;28;20153;-94
2022/06/20 09:43:42;;;;;;;10.52;2.25;;;18.40;78.10;;;;;;5105862;28;20130;-92
2022/06/20 09:46:17;;;;;;;4.22;1.63;;;18.60;77.20;;;;;;5106576;28;20083;-93
2022/06/20 09:49:19;;;;;;;6.32;1.80;;;18.70;76.10;;;;;;5107021;28;20024;-92
2022/06/20 09:52:13;;;;;;;4.95;1.70;;;18.80;75.30;;;;;;5103027;28;20016;-93
2022/06/20 09:55:01;;;;;;;7.75;1.63;;;18.90;74.30;;;;;;5105167;28;20031;-92
2022/06/20 09:57:40;;;;;;;4.13;1.60;;;19.10;73.30;;;;;;5097498;28;20023;-94
2022/06/20 10:00:11;;;;;;;5.32;1.52;;;19.00;73.10;;;;;;5106391;28;20062;-92
2022/06/20 10:02:46;;;;;;;;;;;19.10;73.10;;;;;;5101765;28;20036;-92
2022/06/20 10:05:24;;;;;;;6.28;2.17;;;19.10;72.30;;;;;;5100235;28;19968;-93
2022/06/20 10:08:17;;;;;;;7.13;1.88;;;19.20;71.90;;;;;;5104109;28;20020;-92
2022/06/20 10:11:25;;;;;;;4.38;1.50;;;19.20;71.50;;;;;;5105062;28;20032;-92
2022/06/20 10:14:19;;;;;;;4.25;1.20;;;19.20;70.70;;;;;;5053659;28;20047;-93
2022/06/20 10:17:19;;;;;;;4.53;1.55;;;19.40;70.60;;;;;;5107011;28;20034;-93
2022/06/20 10:20:01;;;;;;;3.58;1.52;;;19.60;70.40;;;;;;5104952;28;20155;-95
2022/06/20 10:22:44;;;;;;;7.25;1.60;;;19.70;69.70;;;;;;5104693;28;20027;-94
2022/06/20 10:25:31;;;;;;;4.22;1.75;;;19.80;69.40;;;;;;5101152;28;20032;-94
2022/06/20 10:28:12;;;;;;;4.05;1.70;;;20.00;69.10;;;;;;5099873;28;20032;-94
2022/06/20 10:30:52;;;;;;;3.95;1.60;;;20.00;68.70;;;;;;5102542;28;20110;-93
2022/06/20 10:33:52;;;;;;;4.03;1.70;;;20.10;68.40;;;;;;5126647;28;20113;-93
2022/06/20 10:36:43;;;;;;;;;;;20.40;68.10;;;;;;5098451;28;20031;-93
2022/06/20 10:39:20;;;;;;;5.50;1.83;;;20.50;67.40;;;;;;5120527;28;20412;-94
2022/06/20 10:41:59;;;;;;;4.35;1.40;;;20.60;67.40;;;;;;5118040;28;20441;-94
2022/06/20 10:45:10;;;;;;;6.53;1.80;;;20.80;66.70;;;;;;5119846;28;20047;-94
2022/06/20 10:47:50;;;;;;;;;;;21.00;65.50;;;;;;5118771;28;20076;-93
2022/06/20 10:50:41;;;;;;;4.85;1.55;;;21.10;64.30;;;;;;5117561;28;19911;-93
2022/06/20 10:53:20;;;;;;;7.28;1.70;;;21.10;64.00;;;;;;5098341;28;20130;-94
2022/06/20 10:55:48;;;;;;;4.15;1.40;;;21.10;63.40;;;;;;5097129;28;20024;-94
2022/06/20 10:58:34;;;;;;;3.25;1.17;;;21.20;63.00;;;;;;5097165;28;20083;-95
2022/06/20 11:01:10;;;;;;;4.43;1.40;;;21.30;62.00;;;;;;5097597;28;20096;-93
2022/06/20 11:03:58;;;;;;;3.30;1.40;;;21.40;61.80;;;;;;5106504;28;20027;-94
2022/06/20 11:07:01;;;;;;;6.10;1.52;;;21.50;61.40;;;;;;5122451;28;20032;-94
2022/06/20 11:09:48;;;;;;;3.30;1.15;;;21.80;60.80;;;;;;5099165;28;20118;-93
2022/06/20 11:12:17;;;;;;;5.10;1.42;;;22.00;60.60;;;;;;5099167;28;20462;-93
2022/06/20 11:14:57;;;;;;;4.45;1.63;;;22.20;60.40;;;;;;5099835;28;20035;-94
2022/06/20 11:18:05;;;;;;;3.67;1.30;;;22.30;59.50;;;;;;5119795;27;20024;-93
2022/06/20 11:20:43;;;;;;;6.25;1.30;;;22.40;59.30;;;;;;5088378;28;20039;-94
2022/06/20 11:23:17;;;;;;;4.32;1.60;;;22.50;58.60;;;;;;5086265;28;20020;-92
2022/06/20 11:26:03;;;;;;;2.80;1.10;;;22.60;58.90;;;;;;5089773;28;20069;-95
2022/06/20 11:28:36;;;;;;;5.28;1.35;;;22.80;58.60;;;;;;5088312;28;20036;-92
2022/06/20 11:31:39;;;;;;;3.03;1.52;;;22.90;58.40;;;;;;5082583;28;20052;-94
2022/06/20 11:34:29;;;;;;;3.97;1.98;;;23.20;58.20;;;;;;5085165;28;20035;-93
2022/06/20 11:37:05;;;;;;;4.38;1.67;;;23.40;58.00;;;;;;5097510;28;20055;-95
2022/06/20 11:40:02;;;;;;;4.07;1.27;;;23.60;57.70;;;;;;5089192;28;20097;-93
2022/06/20 11:43:16;;;;;;;3.00;1.25;;;23.80;56.70;;;;;;5094164;28;20077;-93
2022/06/20 11:46:27;;;;;;;3.03;1.45;;;23.80;56.10;;;;;;5094178;28;20065;-94
2022/06/20 11:49:16;;;;;;;3.72;1.30;;;23.80;55.90;;;;;;5093110;28;20036;-93
2022/06/20 11:52:08;;;;;;;6.45;2.08;;;23.90;55.80;;;;;;5094187;28;20533;-93
2022/06/20 11:55:06;;;;;;;4.47;1.35;;;23.90;55.30;;;;;;5092942;28;20028;-93
2022/06/20 11:57:47;;;;;;;2.83;1.35;;;23.90;55.30;;;;;;5061022;28;20028;-94
2022/06/20 12:00:28;;;;;;;;;;;23.90;55.20;;;;;;5097894;28;20493;-94
2022/06/20 12:03:10;;;;;;;3.63;1.38;;;23.90;55.00;;;;;;5098194;28;20349;-96
2022/06/20 12:05:59;;;;;;;4.18;1.48;;;23.90;53.90;;;;;;5098718;28;20035;-94
2022/06/20 12:08:52;;;;;;;3.97;1.02;;;23.90;53.90;;;;;;5096106;28;20125;-94
2022/06/20 12:11:45;;;;;;;4.53;1.83;;;23.90;53.90;;;;;;5097043;28;20499;-92
2022/06/20 12:14:19;;;;;;;4.13;1.85;;;24.10;53.90;;;;;;5083185;28;20036;-94
2022/06/20 12:17:10;;;;;;;3.08;1.15;;;24.10;53.30;;;;;;5096731;28;20028;-94
2022/06/20 12:25:39;;;;;;;2.30;1.20;;;24.40;53.30;;;;;;5104940;28;20061;-96
2022/06/20 12:28:18;;;;;;;4.20;1.30;;;24.40;52.70;;;;;;5103902;28;20016;-94
2022/06/20 12:30:55;;;;;;;3.30;1.15;;;24.60;52.70;;;;;;5098825;28;20111;-93
2022/06/20 12:33:22;;;;;;;5.68;1.75;;;24.80;52.60;;;;;;5100448;28;20038;-95
2022/06/20 12:35:59;;;;;;;6.85;1.60;;;25.10;52.40;;;;;;5098024;28;20020;-95
2022/06/20 12:38:32;;;;;;;4.03;1.05;;;25.20;52.00;;;;;;5095848;28;20032;-95
2022/06/20 12:41:03;;;;;;;2.42;1.20;;;25.20;52.00;;;;;;5096685;28;20048;-94
2022/06/20 12:43:38;;;;;;;7.45;1.83;;;25.40;52.10;;;;;;5096282;28;20461;-94
2022/06/20 12:46:35;;;;;;;5.85;1.80;;;25.60;51.90;;;;;;5095414;28;20028;-95
2022/06/20 12:49:07;;;;;;;2.55;1.27;;;25.70;51.70;;;;;;5069353;28;20040;-94
2022/06/20 12:51:50;;;;;;;2.28;1.35;;;25.90;51.50;;;;;;5096067;28;20028;-93
2022/06/20 12:54:45;;;;;;;4.50;1.13;;;26.00;51.20;;;;;;5103986;27;20000;-94
2022/06/20 12:57:20;;;;;;;6.53;1.40;;;26.20;51.10;;;;;;5109270;27;20039;-95
2022/06/20 13:00:16;;;;;;;4.38;1.20;;;26.30;50.70;;;;;;5108526;28;20082;-94
2022/06/20 13:02:57;;;;;;;3.65;1.02;;;26.40;50.80;;;;;;5115176;27;20016;-96
2022/06/20 13:05:49;;;;;;;1.77;1.00;;;26.50;50.50;;;;;;5116553;27;20024;-93
2022/06/20 13:08:33;;;;;;;3.10;1.00;;;26.60;50.30;;;;;;5103570;28;20034;-93
2022/06/20 13:11:08;;;;;;;2.60;1.00;;;26.80;50.20;;;;;;5100849;28;20040;-96
2022/06/20 13:13:56;;;;;;;3.20;1.13;;;27.00;49.90;;;;;;5103227;28;20081;-94
2022/06/20 13:16:40;;;;;;;3.55;1.27;;;27.10;49.20;;;;;;5100638;28;20028;-95
2022/06/20 13:19:19;;;;;;;2.15;1.10;;;27.10;48.80;;;;;;5093398;28;20020;-95
2022/06/20 13:21:55;;;;;;;2.83;0.93;;;26.90;48.80;;;;;;5091157;28;20094;-95
2022/06/20 13:24:51;;;;;;;2.28;0.95;;;26.90;49.00;;;;;;5096075;28;20020;-95
2022/06/20 13:27:25;;;;;;;2.40;1.13;;;27.00;49.00;;;;;;5101590;28;20032;-96
2022/06/20 13:30:12;;;;;;;2.97;0.90;;;27.20;49.40;;;;;;5103979;28;20028;-94
2022/06/20 13:32:47;;;;;;;3.05;1.10;;;27.40;49.20;;;;;;5105047;28;20057;-96
2022/06/20 13:35:26;;;;;;;5.03;1.02;;;27.60;49.10;;;;;;5103282;28;20028;-95
2022/06/20 13:38:04;;;;;;;4.80;1.30;;;27.60;48.40;;;;;;5100891;28;20027;-94
2022/06/20 13:40:36;;;;;;;1.40;1.00;;;27.60;48.30;;;;;;5105269;28;20028;-95
2022/06/20 13:43:41;;;;;;;1.65;1.00;;;27.50;48.20;;;;;;5106894;28;20129;-95
2022/06/20 13:46:16;;;;;;;2.70;1.02;;;27.60;48.00;;;;;;5102324;28;20032;-95
2022/06/20 13:48:45;;;;;;;2.67;0.90;;;27.50;47.60;;;;;;5100431;28;20042;-96
2022/06/20 13:51:50;;;;;;;4.65;1.00;;;27.50;47.70;;;;;;5097799;28;20028;-94
2022/06/20 13:54:38;;;;;;;2.17;1.00;;;27.50;46.90;;;;;;5092518;28;20027;-93
2022/06/20 13:57:27;;;;;;;2.30;0.90;;;27.50;46.90;;;;;;5099295;28;20016;-92
2022/06/20 14:00:25;;;;;;;2.45;0.90;;;27.60;47.20;;;;;;5094427;28;20040;-92
2022/06/20 14:03:30;;;;;;;3.17;1.20;;;27.80;47.50;;;;;;5096705;28;20036;-92
2022/06/20 14:06:14;;;;;;;2.47;0.70;;;28.00;46.90;;;;;;5095504;28;20107;-92